Time,TemperatureF,DewpointF,PressureIn,WindDirection,WindDirectionDegrees,WindSpeedMPH,WindSpeedGustMPH,Humidity,HourlyPrecipIn,Conditions,Clouds,dailyrainin,SoftwareType,DateUTC
2013-07-03 00:01:00,75.6,46.8,30.74,North,2,6.3,6.3,36,0.00,,---,0.00,VWS V14.01,2013-07-03 07:01:00,
2013-07-03 00:06:00,75.6,46.8,30.51,North,5,7.6,7.6,36,0.00,,---,0.00,VWS V14.01,2013-07-03 07:06:00,
2013-07-03 00:11:00,72.7,51.9,30.51,WNW,302,2.2,2.2,48,0.00,,---,0.00,VWS V14.01,2013-07-03 07:11:00,
2013-07-03 00:16:00,72.3,52.1,30.51,WNW,299,3.6,3.6,49,0.00,,---,0.00,VWS V14.01,2013-07-03 07:16:00,
2013-07-03 00:21:00,72.1,51.9,30.36,WNW,299,3.6,3.6,49,0.00,,---,0.00,VWS V14.01,2013-07-03 07:21:00,
2013-07-03 00:26:00,72.1,52.5,30.36,NNW,328,0.0,0.0,50,0.00,,---,0.00,VWS V14.01,2013-07-03 07:26:00,
2013-07-03 00:31:00,72.1,52.5,30.36,WNW,288,5.8,5.8,50,0.00,,---,0.00,VWS V14.01,2013-07-03 07:31:00,
2013-07-03 00:37:00,71.6,52.5,30.36,WNW,284,2.7,2.7,51,0.00,,---,0.00,VWS V14.01,2013-07-03 07:37:00,
2013-07-03 00:41:00,71.6,53.1,30.39,West,265,6.3,10.5,52,0.00,,---,0.00,VWS V14.01,2013-07-03 07:41:00,
2013-07-03 00:46:00,71.1,53.1,30.39,SW,234,8.1,8.1,53,0.00,,---,0.00,VWS V14.01,2013-07-03 07:46:00,
2013-07-03 00:50:00,71.4,52.4,30.39,SE,146,3.1,3.1,51,0.00,,---,0.00,VWS V14.01,2013-07-03 07:50:00,
2013-07-03 00:55:00,72.5,48.8,30.60,West,263,5.4,8.1,43,0.00,,---,0.00,VWS V14.01,2013-07-03 07:55:00,
2013-07-03 01:00:00,73.6,47.1,30.60,North,0,0.0,0.0,39,0.00,,---,0.00,VWS V14.01,2013-07-03 08:00:00,
2013-07-03 01:05:00,73.8,48.6,30.60,NE,36,10.5,10.5,41,0.00,,---,0.00,VWS V14.01,2013-07-03 08:05:00,
2013-07-03 01:06:00,73.8,48.6,30.60,NNE,31,11.0,11.0,41,0.00,,---,0.00,VWS V14.01,2013-07-03 08:06:00,
2013-07-03 01:10:00,73.8,48.6,30.89,North,3,10.1,10.1,41,0.00,,---,0.00,VWS V14.01,2013-07-03 08:10:00,
2013-07-03 01:12:00,74.3,47.1,30.89,NE,39,4.9,4.9,38,0.00,,---,0.00,VWS V14.01,2013-07-03 08:12:00,
2013-07-03 01:17:00,74.5,47.9,30.89,NNW,331,8.3,8.3,39,0.00,,---,0.00,VWS V14.01,2013-07-03 08:17:00,
2013-07-03 01:19:00,74.5,47.9,30.89,West,274,7.2,7.2,39,0.00,,---,0.00,VWS V14.01,2013-07-03 08:19:00,
2013-07-03 01:20:00,74.5,47.9,30.89,West,274,7.2,7.2,39,0.00,,---,0.00,VWS V14.01,2013-07-03 08:20:00,
2013-07-03 01:25:00,74.5,47.9,30.45,WNW,293,4.0,4.0,39,0.00,,---,0.00,VWS V14.01,2013-07-03 08:25:00,
2013-07-03 01:30:00,72.1,51.4,30.45,West,281,0.0,0.0,48,0.00,,---,0.00,VWS V14.01,2013-07-03 08:30:00,
2013-07-03 01:35:00,72.0,51.2,30.45,SW,227,0.0,0.0,48,0.00,,---,0.00,VWS V14.01,2013-07-03 08:35:00,
2013-07-03 01:40:00,71.4,50.2,30.68,SW,227,0.0,0.0,47,0.00,,---,0.00,VWS V14.01,2013-07-03 08:40:00,
2013-07-03 01:45:00,71.4,50.2,30.68,SSW,200,0.0,5.4,47,0.00,,---,0.00,VWS V14.01,2013-07-03 08:45:00,
2013-07-03 01:46:00,71.4,50.2,30.68,SSW,200,0.0,0.0,47,0.00,,---,0.00,VWS V14.01,2013-07-03 08:46:00,
2013-07-03 01:51:00,72.7,48.9,30.68,SSW,198,0.0,0.0,43,0.00,,---,0.00,VWS V14.01,2013-07-03 08:51:00,
2013-07-03 01:55:00,72.7,48.9,30.68,SSW,196,0.0,0.0,43,0.00,,---,0.00,VWS V14.01,2013-07-03 08:55:00,
2013-07-03 01:56:00,72.7,48.9,30.68,South,171,0.0,0.0,43,0.00,,---,0.00,VWS V14.01,2013-07-03 08:56:00,
2013-07-03 02:01:00,72.7,48.9,30.68,South,170,0.0,0.0,43,0.00,,---,0.00,VWS V14.01,2013-07-03 09:01:00,
2013-07-03 02:07:00,72.5,49.4,30.80,South,169,0.0,0.0,44,0.00,,---,0.00,VWS V14.01,2013-07-03 09:07:00,
2013-07-03 02:12:00,72.5,47.5,30.80,SSE,162,6.3,6.3,41,0.00,,---,0.00,VWS V14.01,2013-07-03 09:12:00,
2013-07-03 02:18:00,72.7,47.0,30.80,SE,138,0.0,0.0,40,0.00,,---,0.00,VWS V14.01,2013-07-03 09:18:00,
2013-07-03 02:23:00,72.9,47.8,30.80,SSE,165,0.0,0.0,41,0.00,,---,0.00,VWS V14.01,2013-07-03 09:23:00,
2013-07-03 02:28:00,72.7,47.0,30.45,SE,135,3.6,3.6,40,0.00,,---,0.00,VWS V14.01,2013-07-03 09:28:00,
2013-07-03 07:24:00,75.4,49.4,30.86,SW,224,0.0,0.0,40,0.00,,---,0.00,VWS V14.01,2013-07-03 14:24:00,
2013-07-03 07:26:00,75.6,49.6,30.86,SW,224,0.0,0.0,40,0.00,,---,0.00,VWS V14.01,2013-07-03 14:26:00,
2013-07-03 07:30:00,76.1,49.4,30.86,SW,224,0.0,0.0,39,0.00,,---,0.00,VWS V14.01,2013-07-03 14:30:00,
2013-07-03 07:35:00,76.3,48.1,30.74,SW,224,0.0,0.0,37,0.00,,---,0.00,VWS V14.01,2013-07-03 14:35:00,
2013-07-03 07:38:00,76.6,48.4,30.74,SW,224,0.0,0.0,37,0.00,,---,0.00,VWS V14.01,2013-07-03 14:38:00,
2013-07-03 07:41:00,76.8,48.6,30.74,SW,222,0.0,0.0,37,0.00,,---,0.00,VWS V14.01,2013-07-03 14:41:00,
2013-07-03 07:46:00,77.2,48.2,30.74,SW,219,0.0,0.0,36,0.00,,---,0.00,VWS V14.01,2013-07-03 14:46:00,
2013-07-03 07:52:00,77.5,48.5,30.89,SW,219,0.0,0.0,36,0.00,,---,0.00,VWS V14.01,2013-07-03 14:52:00,
2013-07-03 07:53:00,77.5,48.5,30.89,SW,219,0.0,0.0,36,0.00,,---,0.00,VWS V14.01,2013-07-03 14:53:00,
2013-07-03 07:58:00,77.7,47.9,30.89,ESE,123,0.0,0.0,35,0.00,,---,0.00,VWS V14.01,2013-07-03 14:58:00,
2013-07-03 07:59:00,77.9,48.1,30.89,ESE,123,0.0,0.0,35,0.00,,---,0.00,VWS V14.01,2013-07-03 14:59:00,
2013-07-03 08:03:00,78.3,48.4,30.89,ESE,119,0.0,0.0,35,0.00,,---,0.00,VWS V14.01,2013-07-03 15:03:00,
2013-07-03 08:05:00,78.3,48.4,31.13,ESE,119,0.0,0.0,35,0.00,,---,0.00,VWS V14.01,2013-07-03 15:05:00,
2013-07-03 08:10:00,78.4,47.0,31.13,ESE,105,0.0,0.0,33,0.00,,---,0.00,VWS V14.01,2013-07-03 15:10:00,
2013-07-03 08:16:00,78.6,44.6,31.13,East,97,0.0,0.0,30,0.00,,---,0.00,VWS V14.01,2013-07-03 15:16:00,
2013-07-03 08:21:00,78.8,42.0,30.83,East,89,0.0,0.0,27,0.00,,---,0.00,VWS V14.01,2013-07-03 15:21:00,
2013-07-03 08:26:00,79.0,42.2,30.83,NE,46,0.0,0.0,27,0.00,,---,0.00,VWS V14.01,2013-07-03 15:26:00,
2013-07-03 08:28:00,79.2,42.3,30.83,NE,46,0.0,0.0,27,0.00,,---,0.00,VWS V14.01,2013-07-03 15:28:00,
2013-07-03 08:33:00,79.7,45.6,30.83,North,0,0.0,0.0,30,0.00,,---,0.00,VWS V14.01,2013-07-03 15:33:00,
2013-07-03 08:39:00,80.1,43.1,30.83,NNE,19,0.0,2.2,27,0.00,,---,0.00,VWS V14.01,2013-07-03 15:39:00,
2013-07-03 08:43:00,80.2,43.3,30.83,NNE,19,0.0,0.0,27,0.00,,---,0.00,VWS V14.01,2013-07-03 15:43:00,
2013-07-03 08:48:00,80.2,41.3,30.48,NNE,19,0.0,0.0,25,0.00,,---,0.00,VWS V14.01,2013-07-03 15:48:00,
2013-07-03 08:52:00,80.2,43.3,30.48,North,11,0.0,0.0,27,0.00,,---,0.00,VWS V14.01,2013-07-03 15:52:00,
2013-07-03 08:53:00,80.2,43.3,30.48,North,11,0.0,0.0,27,0.00,,---,0.00,VWS V14.01,2013-07-03 15:53:00,
2013-07-03 08:55:00,80.2,43.3,30.48,NW,324,0.0,0.0,27,0.00,,---,0.00,VWS V14.01,2013-07-03 15:55:00,
2013-07-03 09:00:00,80.2,46.0,30.48,WNW,289,0.0,0.0,30,0.00,,---,0.00,VWS V14.01,2013-07-03 16:00:00,
2013-07-03 09:05:00,80.6,43.6,30.74,NNE,29,0.0,0.0,27,0.00,,---,0.00,VWS V14.01,2013-07-03 16:05:00,
2013-07-03 09:10:00,81.3,44.2,30.74,WNW,287,0.0,0.0,27,0.00,,---,0.00,VWS V14.01,2013-07-03 16:10:00,
2013-07-03 09:15:00,81.5,41.3,30.74,NW,304,0.0,0.0,24,0.00,,---,0.00,VWS V14.01,2013-07-03 16:15:00,
2013-07-03 09:20:00,81.1,41.0,30.74,North,357,0.0,0.0,24,0.00,,---,0.00,VWS V14.01,2013-07-03 16:20:00,
2013-07-03 09:26:00,80.8,40.7,30.66,North,357,0.0,0.0,24,0.00,,---,0.00,VWS V14.01,2013-07-03 16:26:00,
2013-07-03 09:31:00,81.0,40.8,30.66,North,357,0.0,0.0,24,0.00,,---,0.00,VWS V14.01,2013-07-03 16:31:00,
2013-07-03 09:36:00,81.5,39.0,30.66,West,267,0.0,0.0,22,0.00,,---,0.00,VWS V14.01,2013-07-03 16:36:00,
2013-07-03 09:41:00,82.0,39.5,30.66,West,268,0.0,0.0,22,0.00,,---,0.00,VWS V14.01,2013-07-03 16:41:00,
2013-07-03 09:47:00,82.0,39.5,30.66,ESE,104,0.0,0.0,22,0.00,,---,0.00,VWS V14.01,2013-07-03 16:47:00,
2013-07-03 09:52:00,82.9,39.0,31.04,East,84,3.1,3.1,21,0.00,,---,0.00,VWS V14.01,2013-07-03 16:52:00,
2013-07-03 09:57:00,84.0,39.9,31.04,East,84,3.1,3.1,21,0.00,,---,0.00,VWS V14.01,2013-07-03 16:57:00,
2013-07-03 10:03:00,84.7,36.6,31.04,NE,47,4.9,4.9,18,0.00,,---,0.00,VWS V14.01,2013-07-03 17:03:00,
2013-07-03 10:08:00,85.1,36.9,30.80,NNE,22,5.4,5.4,18,0.00,,---,0.00,VWS V14.01,2013-07-03 17:08:00,
2013-07-03 10:13:00,85.3,37.0,30.80,NNE,15,0.0,0.0,18,0.00,,---,0.00,VWS V14.01,2013-07-03 17:13:00,
2013-07-03 10:18:00,85.8,37.5,30.80,NE,36,0.0,0.0,18,0.00,,---,0.00,VWS V14.01,2013-07-03 17:18:00,
2013-07-03 10:23:00,85.1,36.9,31.33,NE,43,0.0,2.2,18,0.00,,---,0.00,VWS V14.01,2013-07-03 17:23:00,
2013-07-03 10:29:00,85.1,36.9,31.33,South,183,0.0,0.0,18,0.00,,---,0.00,VWS V14.01,2013-07-03 17:29:00,
2013-07-03 10:34:00,85.5,37.2,31.33,North,1,0.0,0.0,18,0.00,,---,0.00,VWS V14.01,2013-07-03 17:34:00,
2013-07-03 10:39:00,86.0,37.6,31.16,West,270,0.0,0.0,18,0.00,,---,0.00,VWS V14.01,2013-07-03 17:39:00,
2013-07-03 10:44:00,86.2,37.8,31.16,West,277,0.0,0.0,18,0.00,,---,0.00,VWS V14.01,2013-07-03 17:44:00,
2013-07-03 10:50:00,86.5,38.0,31.16,West,268,0.0,0.0,18,0.00,,---,0.00,VWS V14.01,2013-07-03 17:50:00,
2013-07-03 10:55:00,86.5,38.0,31.81,NNE,24,0.0,0.0,18,0.00,,---,0.00,VWS V14.01,2013-07-03 17:55:00,
2013-07-03 11:00:00,86.9,38.3,31.81,NNE,24,0.0,0.0,18,0.00,,---,0.00,VWS V14.01,2013-07-03 18:00:00,
2013-07-03 11:05:00,86.9,38.3,31.25,North,357,0.0,0.0,18,0.00,,---,0.00,VWS V14.01,2013-07-03 18:05:00,
2013-07-03 11:10:00,88.2,39.4,31.25,WSW,257,2.7,2.7,18,0.00,,---,0.00,VWS V14.01,2013-07-03 18:10:00,
2013-07-03 11:16:00,89.4,40.4,31.25,North,357,5.4,5.4,18,0.00,,---,0.00,VWS V14.01,2013-07-03 18:16:00,
2013-07-03 11:21:00,89.4,40.4,31.39,NNE,28,5.4,5.4,18,0.00,,---,0.00,VWS V14.01,2013-07-03 18:21:00,
2013-07-03 11:26:00,89.6,39.1,31.39,North,357,3.6,3.6,17,0.00,,---,0.00,VWS V14.01,2013-07-03 18:26:00,
2013-07-03 11:31:00,89.6,39.1,31.39,NE,37,3.6,3.6,17,0.00,,---,0.00,VWS V14.01,2013-07-03 18:31:00,
2013-07-03 11:36:00,90.1,39.5,31.63,NW,317,0.0,0.0,17,0.00,,---,0.00,VWS V14.01,2013-07-03 18:36:00,
2013-07-03 11:41:00,90.3,39.6,31.63,NNE,17,0.0,0.0,17,0.00,,---,0.00,VWS V14.01,2013-07-03 18:41:00,
2013-07-03 11:47:00,90.3,39.6,31.63,NNE,19,0.0,0.0,17,0.00,,---,0.00,VWS V14.01,2013-07-03 18:47:00,
2013-07-03 11:52:00,90.5,39.8,31.95,North,357,0.0,0.0,17,0.00,,---,0.00,VWS V14.01,2013-07-03 18:52:00,
2013-07-03 11:58:00,91.0,40.2,31.95,North,10,0.0,0.0,17,0.00,,---,0.00,VWS V14.01,2013-07-03 18:58:00,
2013-07-03 12:03:00,91.2,40.4,31.30,North,357,0.0,0.0,17,0.00,,---,0.00,VWS V14.01,2013-07-03 19:03:00,
2013-07-03 12:08:00,92.5,41.4,31.30,North,357,3.6,3.6,17,0.00,,---,0.00,VWS V14.01,2013-07-03 19:08:00,
2013-07-03 12:14:00,91.8,40.8,31.30,North,2,0.0,0.0,17,0.00,,---,0.00,VWS V14.01,2013-07-03 19:14:00,
2013-07-03 12:19:00,91.8,40.8,30.86,North,357,0.0,0.0,17,0.00,,---,0.00,VWS V14.01,2013-07-03 19:19:00,
2013-07-03 12:24:00,91.8,40.8,30.86,North,357,0.0,0.0,17,0.00,,---,0.00,VWS V14.01,2013-07-03 19:24:00,
2013-07-03 12:29:00,91.9,40.9,30.86,North,0,0.0,0.0,17,0.00,,---,0.00,VWS V14.01,2013-07-03 19:29:00,
2013-07-03 12:35:00,91.9,40.9,30.77,North,357,0.0,0.0,17,0.00,,---,0.00,VWS V14.01,2013-07-03 19:35:00,
2013-07-03 12:40:00,92.8,41.7,30.77,North,357,0.0,0.0,17,0.00,,---,0.00,VWS V14.01,2013-07-03 19:40:00,
2013-07-03 12:45:00,93.2,42.0,30.77,North,357,0.0,0.0,17,0.00,,---,0.00,VWS V14.01,2013-07-03 19:45:00,
2013-07-03 12:50:00,93.9,42.5,30.77,North,9,0.0,0.0,17,0.00,,---,0.00,VWS V14.01,2013-07-03 19:50:00,
2013-07-03 12:55:00,93.9,42.5,30.98,NNE,19,0.0,0.0,17,0.00,,---,0.00,VWS V14.01,2013-07-03 19:55:00,
2013-07-03 13:01:00,94.3,42.8,30.98,NNE,15,0.0,0.0,17,0.00,,---,0.00,VWS V14.01,2013-07-03 20:01:00,
2013-07-03 13:06:00,94.3,42.8,31.19,NNE,15,0.0,0.0,17,0.00,,---,0.00,VWS V14.01,2013-07-03 20:06:00,
2013-07-03 13:11:00,94.3,42.8,31.19,NNE,20,5.8,5.8,17,0.00,,---,0.00,VWS V14.01,2013-07-03 20:11:00,
2013-07-03 13:16:00,94.1,42.7,31.19,NNE,21,0.0,0.0,17,0.00,,---,0.00,VWS V14.01,2013-07-03 20:16:00,
2013-07-03 13:21:00,93.9,42.5,31.39,NNE,14,0.0,0.0,17,0.00,,---,0.00,VWS V14.01,2013-07-03 20:21:00,
2013-07-03 13:26:00,93.7,42.4,31.39,NNE,14,0.0,0.0,17,0.00,,---,0.00,VWS V14.01,2013-07-03 20:26:00,
2013-07-03 13:31:00,93.7,42.4,31.39,NNE,20,3.6,3.6,17,0.00,,---,0.00,VWS V14.01,2013-07-03 20:31:00,
2013-07-03 13:37:00,93.7,42.4,31.78,NW,307,0.0,0.0,17,0.00,,---,0.00,VWS V14.01,2013-07-03 20:37:00,
2013-07-03 13:42:00,93.2,42.0,31.78,NNW,328,6.3,6.3,17,0.00,,---,0.00,VWS V14.01,2013-07-03 20:42:00,
2013-07-03 13:47:00,93.0,41.8,31.78,North,0,4.9,4.9,17,0.00,,---,0.00,VWS V14.01,2013-07-03 20:47:00,
2013-07-03 13:52:00,92.3,41.2,31.04,NW,306,4.0,4.0,17,0.00,,---,0.00,VWS V14.01,2013-07-03 20:52:00,
2013-07-03 13:57:00,91.9,40.9,31.04,NW,310,5.8,5.8,17,0.00,,---,0.00,VWS V14.01,2013-07-03 20:57:00,
2013-07-03 14:02:00,91.6,40.7,31.04,WNW,296,3.1,3.1,17,0.00,,---,0.00,VWS V14.01,2013-07-03 21:02:00,
2013-07-03 14:07:00,91.0,40.2,31.30,West,275,0.0,0.0,17,0.00,,---,0.00,VWS V14.01,2013-07-03 21:07:00,
2013-07-03 14:13:00,91.0,40.2,31.30,West,264,0.0,0.0,17,0.00,,---,0.00,VWS V14.01,2013-07-03 21:13:00,
2013-07-03 14:18:00,91.0,40.2,30.98,West,263,0.0,0.0,17,0.00,,---,0.00,VWS V14.01,2013-07-03 21:18:00,
2013-07-03 14:24:00,90.1,39.5,30.98,West,262,0.0,0.0,17,0.00,,---,0.00,VWS V14.01,2013-07-03 21:24:00,
2013-07-03 14:29:00,90.1,39.5,30.98,West,276,0.0,0.0,17,0.00,,---,0.00,VWS V14.01,2013-07-03 21:29:00,
2013-07-03 14:34:00,90.0,39.3,30.57,West,280,0.0,0.0,17,0.00,,---,0.00,VWS V14.01,2013-07-03 21:34:00,
2013-07-03 14:40:00,90.0,39.3,30.57,WNW,297,0.0,0.0,17,0.00,,---,0.00,VWS V14.01,2013-07-03 21:40:00,
2013-07-03 14:45:00,90.0,39.3,30.57,WNW,297,0.0,0.0,17,0.00,,---,0.00,VWS V14.01,2013-07-03 21:45:00,
2013-07-03 14:50:00,90.1,39.5,30.33,WNW,297,0.0,0.0,17,0.00,,---,0.00,VWS V14.01,2013-07-03 21:50:00,
2013-07-03 14:55:00,90.1,39.5,30.33,WNW,297,0.0,0.0,17,0.00,,---,0.00,VWS V14.01,2013-07-03 21:55:00,
2013-07-03 15:00:00,90.5,39.8,30.33,WNW,297,0.0,0.0,17,0.00,,---,0.00,VWS V14.01,2013-07-03 22:00:00,
2013-07-03 15:05:00,90.5,39.8,30.24,NNW,330,0.0,0.0,17,0.00,,---,0.00,VWS V14.01,2013-07-03 22:05:00,
2013-07-03 15:11:00,90.5,39.8,30.24,NW,326,0.0,0.0,17,0.00,,---,0.00,VWS V14.01,2013-07-03 22:11:00,
2013-07-03 15:16:00,90.5,39.8,30.24,NNE,30,0.0,0.0,17,0.00,,---,0.00,VWS V14.01,2013-07-03 22:16:00,
2013-07-03 15:21:00,90.5,39.8,30.24,NE,46,0.0,0.0,17,0.00,,---,0.00,VWS V14.01,2013-07-03 22:21:00,
2013-07-03 15:27:00,90.9,40.1,30.24,NE,46,0.0,0.0,17,0.00,,---,0.00,VWS V14.01,2013-07-03 22:27:00,
2013-07-03 15:32:00,91.0,40.2,30.24,NE,41,0.0,0.0,17,0.00,,---,0.00,VWS V14.01,2013-07-03 22:32:00,
2013-07-03 15:37:00,91.0,40.2,30.24,NNE,29,0.0,0.0,17,0.00,,---,0.00,VWS V14.01,2013-07-03 22:37:00,
2013-07-03 15:42:00,91.0,40.2,30.24,NNE,30,0.0,0.0,17,0.00,,---,0.00,VWS V14.01,2013-07-03 22:42:00,
2013-07-03 15:48:00,91.0,40.2,30.24,NNE,30,0.0,0.0,17,0.00,,---,0.00,VWS V14.01,2013-07-03 22:48:00,
2013-07-03 15:53:00,91.2,40.4,30.42,NNE,30,0.0,0.0,17,0.00,,---,0.00,VWS V14.01,2013-07-03 22:53:00,
2013-07-03 15:58:00,91.2,40.4,30.42,NNE,22,0.0,0.0,17,0.00,,---,0.00,VWS V14.01,2013-07-03 22:58:00,
2013-07-03 16:03:00,91.2,40.4,30.42,West,265,0.0,0.0,17,0.00,,---,0.00,VWS V14.01,2013-07-03 23:03:00,
2013-07-03 16:08:00,90.9,40.1,30.42,West,268,0.0,0.0,17,0.00,,---,0.00,VWS V14.01,2013-07-03 23:08:00,
2013-07-03 16:14:00,90.9,40.1,30.27,WSW,245,0.0,0.0,17,0.00,,---,0.00,VWS V14.01,2013-07-03 23:14:00,
2013-07-03 16:19:00,90.9,40.1,30.63,NW,311,0.0,0.0,17,0.00,,---,0.00,VWS V14.01,2013-07-03 23:19:00,
2013-07-03 16:24:00,90.9,40.1,30.63,WNW,300,0.0,0.0,17,0.00,,---,0.00,VWS V14.01,2013-07-03 23:24:00,
2013-07-03 16:30:00,90.7,39.9,30.63,West,262,0.0,0.0,17,0.00,,---,0.00,VWS V14.01,2013-07-03 23:30:00,
2013-07-03 16:35:00,90.9,40.1,30.63,West,262,0.0,0.0,17,0.00,,---,0.00,VWS V14.01,2013-07-03 23:35:00,
2013-07-03 16:40:00,91.2,40.4,30.27,SW,224,0.0,0.0,17,0.00,,---,0.00,VWS V14.01,2013-07-03 23:40:00,
2013-07-03 16:45:00,91.6,40.7,30.27,NW,307,0.0,0.0,17,0.00,,---,0.00,VWS V14.01,2013-07-03 23:45:00,
2013-07-03 16:51:00,91.6,40.7,30.27,West,262,0.0,0.0,17,0.00,,---,0.00,VWS V14.01,2013-07-03 23:51:00,
2013-07-03 16:56:00,91.6,40.7,30.27,NW,326,0.0,0.0,17,0.00,,---,0.00,VWS V14.01,2013-07-03 23:56:00,
2013-07-03 17:01:00,91.2,40.4,30.27,WNW,302,0.0,0.0,17,0.00,,---,0.00,VWS V14.01,2013-07-04 00:01:00,
2013-07-03 17:07:00,91.2,40.4,30.03,NNW,327,0.0,0.0,17,0.00,,---,0.00,VWS V14.01,2013-07-04 00:07:00,
2013-07-03 17:12:00,90.9,40.1,30.03,NNW,339,0.0,0.0,17,0.00,,---,0.00,VWS V14.01,2013-07-04 00:12:00,
2013-07-03 17:17:00,90.9,40.1,30.03,NW,317,0.0,0.0,17,0.00,,---,0.00,VWS V14.01,2013-07-04 00:17:00,
2013-07-03 17:23:00,89.2,38.8,29.92,NW,318,0.0,0.0,17,0.00,,---,0.00,VWS V14.01,2013-07-04 00:23:00,
2013-07-03 17:28:00,88.7,38.3,29.92,WNW,295,0.0,0.0,17,0.00,,---,0.00,VWS V14.01,2013-07-04 00:28:00,
2013-07-03 17:33:00,88.5,38.2,29.92,NNW,327,0.0,0.0,17,0.00,,---,0.00,VWS V14.01,2013-07-04 00:33:00,
2013-07-03 17:38:00,88.5,38.2,29.92,NW,326,0.0,0.0,17,0.00,,---,0.00,VWS V14.01,2013-07-04 00:38:00,
2013-07-03 17:43:00,88.5,38.2,29.92,NNW,331,0.0,0.0,17,0.00,,---,0.00,VWS V14.01,2013-07-04 00:43:00,
2013-07-03 17:49:00,88.5,38.2,29.95,WNW,295,0.0,0.0,17,0.00,,---,0.00,VWS V14.01,2013-07-04 00:49:00,
2013-07-03 17:55:00,89.1,38.6,29.95,WNW,289,0.0,0.0,17,0.00,,---,0.00,VWS V14.01,2013-07-04 00:55:00,
2013-07-03 18:00:00,89.2,38.8,29.95,WNW,289,0.0,0.0,17,0.00,,---,0.00,VWS V14.01,2013-07-04 01:00:00,
2013-07-03 18:06:00,89.2,38.8,29.95,NW,315,0.0,0.0,17,0.00,,---,0.00,VWS V14.01,2013-07-04 01:06:00,
2013-07-03 18:11:00,87.8,37.6,29.98,NE,35,0.0,0.0,17,0.00,,---,0.00,VWS V14.01,2013-07-04 01:11:00,
2013-07-03 18:17:00,87.4,37.3,29.98,NNE,25,0.0,0.0,17,0.00,,---,0.00,VWS V14.01,2013-07-04 01:17:00,
2013-07-03 18:22:00,87.4,37.3,29.98,North,357,0.0,0.0,17,0.00,,---,0.00,VWS V14.01,2013-07-04 01:22:00,
2013-07-03 18:27:00,87.4,37.3,30.06,NNE,14,0.0,0.0,17,0.00,,---,0.00,VWS V14.01,2013-07-04 01:27:00,
2013-07-03 18:32:00,87.6,37.5,30.06,North,11,0.0,0.0,17,0.00,,---,0.00,VWS V14.01,2013-07-04 01:32:00,
2013-07-03 18:37:00,87.8,37.6,30.01,North,5,0.0,0.0,17,0.00,,---,0.00,VWS V14.01,2013-07-04 01:37:00,
2013-07-03 18:42:00,87.6,37.5,30.01,NNE,15,0.0,0.0,17,0.00,,---,0.00,VWS V14.01,2013-07-04 01:42:00,
2013-07-03 18:48:00,88.0,37.8,30.01,SSE,156,0.0,0.0,17,0.00,,---,0.00,VWS V14.01,2013-07-04 01:48:00,
2013-07-03 18:53:00,88.0,37.8,30.01,East,85,0.0,0.0,17,0.00,,---,0.00,VWS V14.01,2013-07-04 01:53:00,
2013-07-03 18:58:00,87.8,37.6,30.01,East,99,0.0,0.0,17,0.00,,---,0.00,VWS V14.01,2013-07-04 01:58:00,
2013-07-03 19:04:00,87.6,37.5,30.01,WSW,246,0.0,0.0,17,0.00,,---,0.00,VWS V14.01,2013-07-04 02:04:00,
2013-07-03 19:09:00,88.2,37.9,30.01,ESE,110,0.0,0.0,17,0.00,,---,0.00,VWS V14.01,2013-07-04 02:09:00,
2013-07-03 19:14:00,88.2,37.9,30.01,SSE,163,0.0,0.0,17,0.00,,---,0.00,VWS V14.01,2013-07-04 02:14:00,
2013-07-03 19:19:00,87.4,37.3,30.01,East,97,0.0,0.0,17,0.00,,---,0.00,VWS V14.01,2013-07-04 02:19:00,
2013-07-03 19:24:00,86.9,36.9,29.92,East,95,0.0,0.0,17,0.00,,---,0.00,VWS V14.01,2013-07-04 02:24:00,
2013-07-03 19:29:00,86.5,36.6,29.92,East,95,0.0,0.0,17,0.00,,---,0.00,VWS V14.01,2013-07-04 02:29:00,
2013-07-03 19:35:00,85.6,35.9,29.92,NE,40,0.0,0.0,17,0.00,,---,0.00,VWS V14.01,2013-07-04 02:35:00,
2013-07-03 19:40:00,85.6,35.9,29.89,NE,39,0.0,0.0,17,0.00,,---,0.00,VWS V14.01,2013-07-04 02:40:00,
2013-07-03 19:45:00,84.9,35.3,29.89,NE,40,0.0,0.0,17,0.00,,---,0.00,VWS V14.01,2013-07-04 02:45:00,
2013-07-03 19:50:00,84.6,35.0,30.01,NE,39,0.0,0.0,17,0.00,,---,0.00,VWS V14.01,2013-07-04 02:50:00,
2013-07-03 19:55:00,84.6,35.0,30.01,NE,44,0.0,0.0,17,0.00,,---,0.00,VWS V14.01,2013-07-04 02:55:00,
2013-07-03 20:00:00,83.1,33.8,30.01,ENE,68,0.0,0.0,17,0.00,,---,0.00,VWS V14.01,2013-07-04 03:00:00,
2013-07-03 20:05:00,83.1,33.8,30.01,ESE,122,0.0,0.0,17,0.00,,---,0.00,VWS V14.01,2013-07-04 03:05:00,
2013-07-03 20:11:00,82.4,33.2,30.06,ESE,122,0.0,0.0,17,0.00,,---,0.00,VWS V14.01,2013-07-04 03:11:00,
2013-07-03 20:16:00,82.0,33.0,30.06,ESE,123,0.0,0.0,17,0.00,,---,0.00,VWS V14.01,2013-07-04 03:16:00,
2013-07-03 20:21:00,82.0,33.0,30.06,ESE,123,0.0,0.0,17,0.00,,---,0.00,VWS V14.01,2013-07-04 03:21:00,
2013-07-03 20:26:00,81.3,32.4,30.01,SE,146,0.0,0.0,17,0.00,,---,0.00,VWS V14.01,2013-07-04 03:26:00,
2013-07-03 20:32:00,81.1,32.2,30.01,SSE,150,0.0,0.0,17,0.00,,---,0.00,VWS V14.01,2013-07-04 03:32:00,
2013-07-03 20:37:00,81.0,32.1,30.30,SSE,151,0.0,0.0,17,0.00,,---,0.00,VWS V14.01,2013-07-04 03:37:00,
2013-07-03 20:43:00,80.4,31.7,30.30,SE,143,0.0,3.1,17,0.00,,---,0.00,VWS V14.01,2013-07-04 03:43:00,
2013-07-03 20:48:00,80.1,31.4,30.30,SSE,149,0.0,0.0,17,0.00,,---,0.00,VWS V14.01,2013-07-04 03:48:00,
2013-07-03 20:53:00,79.5,30.9,30.68,SSE,160,0.0,0.0,17,0.00,,---,0.00,VWS V14.01,2013-07-04 03:53:00,
2013-07-03 20:59:00,79.3,30.8,30.68,South,172,0.0,0.0,17,0.00,,---,0.00,VWS V14.01,2013-07-04 03:59:00,
2013-07-03 21:01:00,79.3,30.8,30.68,South,172,0.0,0.0,17,0.00,,---,0.00,VWS V14.01,2013-07-04 04:01:00,
2013-07-03 21:02:00,79.3,30.8,30.68,SSE,166,0.0,0.0,17,0.00,,---,0.00,VWS V14.01,2013-07-04 04:02:00,
2013-07-03 21:07:00,79.0,30.5,30.80,SSE,163,0.0,0.0,17,0.00,,---,0.00,VWS V14.01,2013-07-04 04:07:00,
2013-07-03 21:12:00,79.0,30.5,30.80,South,175,0.0,0.0,17,0.00,,---,0.00,VWS V14.01,2013-07-04 04:12:00,
2013-07-03 21:17:00,78.6,31.6,30.80,South,175,0.0,0.0,18,0.00,,---,0.00,VWS V14.01,2013-07-04 04:17:00,
2013-07-03 21:22:00,78.8,30.4,30.95,South,176,0.0,0.0,17,0.00,,---,0.00,VWS V14.01,2013-07-04 04:22:00,
2013-07-03 21:27:00,78.8,30.4,30.95,South,176,0.0,0.0,17,0.00,,---,0.00,VWS V14.01,2013-07-04 04:27:00,
2013-07-03 21:32:00,78.8,30.4,30.95,SW,222,0.0,0.0,17,0.00,,---,0.00,VWS V14.01,2013-07-04 04:32:00,
2013-07-03 21:38:00,78.8,30.4,30.95,SW,222,0.0,0.0,17,0.00,,---,0.00,VWS V14.01,2013-07-04 04:38:00,
2013-07-03 21:43:00,78.6,31.6,30.95,SW,222,0.0,0.0,18,0.00,,---,0.00,VWS V14.01,2013-07-04 04:43:00,
2013-07-03 21:48:00,78.4,31.5,30.80,SSE,161,0.0,0.0,18,0.00,,---,0.00,VWS V14.01,2013-07-04 04:48:00,
2013-07-03 21:53:00,77.9,31.0,30.80,SSE,161,0.0,0.0,18,0.00,,---,0.00,VWS V14.01,2013-07-04 04:53:00,
2013-07-03 21:58:00,77.9,31.0,30.86,SSE,161,0.0,0.0,18,0.00,,---,0.00,VWS V14.01,2013-07-04 04:58:00,
2013-07-03 22:03:00,77.4,30.6,30.86,SSE,161,0.0,0.0,18,0.00,,---,0.00,VWS V14.01,2013-07-04 05:03:00,
2013-07-03 22:08:00,77.5,30.7,30.80,South,177,0.0,0.0,18,0.00,,---,0.00,VWS V14.01,2013-07-04 05:08:00,
2013-07-03 22:13:00,77.7,30.9,30.80,South,177,0.0,0.0,18,0.00,,---,0.00,VWS V14.01,2013-07-04 05:13:00,
2013-07-03 22:18:00,77.7,30.9,30.80,South,177,0.0,0.0,18,0.00,,---,0.00,VWS V14.01,2013-07-04 05:18:00,
2013-07-03 22:23:00,77.5,30.7,30.98,South,177,0.0,0.0,18,0.00,,---,0.00,VWS V14.01,2013-07-04 05:23:00,
2013-07-03 22:28:00,77.2,30.4,30.98,South,177,0.0,0.0,18,0.00,,---,0.00,VWS V14.01,2013-07-04 05:28:00,
2013-07-03 22:33:00,76.6,30.0,30.98,South,177,0.0,0.0,18,0.00,,---,0.00,VWS V14.01,2013-07-04 05:33:00,
2013-07-03 22:38:00,75.9,29.4,30.98,South,177,0.0,0.0,18,0.00,,---,0.00,VWS V14.01,2013-07-04 05:38:00,
2013-07-03 22:43:00,75.9,29.4,30.98,South,177,0.0,0.0,18,0.00,,---,0.00,VWS V14.01,2013-07-04 05:43:00,
2013-07-03 22:48:00,75.9,29.4,30.98,South,177,0.0,0.0,18,0.00,,---,0.00,VWS V14.01,2013-07-04 05:48:00,
2013-07-03 22:53:00,74.7,32.2,31.39,South,177,0.0,0.0,21,0.00,,---,0.00,VWS V14.01,2013-07-04 05:53:00,
2013-07-03 22:58:00,74.1,31.7,31.39,South,177,0.0,0.0,21,0.00,,---,0.00,VWS V14.01,2013-07-04 05:58:00,
2013-07-03 23:03:00,73.9,31.6,31.39,South,177,0.0,0.0,21,0.00,,---,0.00,VWS V14.01,2013-07-04 06:03:00,
2013-07-03 23:08:00,73.9,31.6,31.87,South,177,0.0,0.0,21,0.00,,---,0.00,VWS V14.01,2013-07-04 06:08:00,
2013-07-03 23:13:00,73.9,31.6,31.87,South,177,0.0,0.0,21,0.00,,---,0.00,VWS V14.01,2013-07-04 06:13:00,
2013-07-03 23:18:00,74.7,32.2,31.87,South,177,0.0,0.0,21,0.00,,---,0.00,VWS V14.01,2013-07-04 06:18:00,
2013-07-03 23:23:00,74.7,32.2,31.87,South,177,0.0,0.0,21,0.00,,---,0.00,VWS V14.01,2013-07-04 06:23:00,
2013-07-03 23:28:00,74.1,31.7,31.95,South,177,0.0,0.0,21,0.00,,---,0.00,VWS V14.01,2013-07-04 06:28:00,
2013-07-03 23:33:00,74.1,31.7,31.95,South,177,0.0,0.0,21,0.00,,---,0.00,VWS V14.01,2013-07-04 06:33:00,
2013-07-03 23:39:00,74.1,31.7,31.95,South,177,0.0,0.0,21,0.00,,---,0.00,VWS V14.01,2013-07-04 06:39:00,
2013-07-03 23:44:00,74.3,31.9,31.87,South,177,0.0,0.0,21,0.00,,---,0.00,VWS V14.01,2013-07-04 06:44:00,
2013-07-03 23:49:00,74.3,31.9,31.87,South,177,0.0,0.0,21,0.00,,---,0.00,VWS V14.01,2013-07-04 06:49:00,
2013-07-03 23:54:00,74.1,31.7,31.45,South,177,0.0,0.0,21,0.00,,---,0.00,VWS V14.01,2013-07-04 06:54:00,
2013-07-03 23:59:00,73.9,31.6,31.45,South,177,0.0,0.0,21,0.00,,---,0.00,VWS V14.01,2013-07-04 06:59:00,